Pagina principale
METAR-TAF:

METAR-TAF

Aeroporti :

Aeroporto di Pescara

Pescara, Italia

latitudine: 42-26N, longitudine: 014-12E, altezza: 10 m

Osservazione

Il bollettino è stato emesso 59 minuti fa, alle 17:50 UTC
Vento 3 kt da nord-est, variando fra nord e est/nord-est
Temperature 9°C
Umidità 87%
Pressione 1013 hPa
Visibilità 10 km o più
Nubi sparse ad un'altezza di 4000 ft
Nuvoloso ad un'altezza di 9000 ft

METAR: LIBP 191750Z 05003KT 360V070 9999 SCT040 BKN090 09/07 Q1013

Ora: 19:49 (18:49 UTC)

Previsione

Il bollettino è stato emesso 1 ora e 49 minuti fa, alle 17:00 UTC
Previsione valida dal 19 alle 18 UTC al 20 alle 18 UTC
Vento 6 kt da direzioni variabili
Visibilità 10 km o più
Nubi sparse ad un'altezza di 4000 ft
Temporaneamente
dal 19 alle 18 UTC al 19 alle 21 UTC
pioggia

TAF: LIBP 191700Z 1918/2018 VRB06KT 9999 SCT040 TEMPO 1918/1921 RA

Osservazioni e previsioni meteorologiche di più di 4000 aeroporti (messaggi METAR e TAF).

Le stazioni disponibili sono rappresentate dai dischi gialli e rossi sulla carta.

Puntare il mouse per vedere il nome della stazione.

Clicca sopra per visualizzare le osservazioni e previsioni meteorologiche.

Per cambiare la mappa : fare clic sui pulsanti verdi con una croce nera per ingrandire, il pulsante verde con un trattino per diminuire, o sulla freccia verde per le mappe adiacenti.


METAR-TAF: